createdAt,value
2022-09-28T08:02:25.440Z,71.95
2022-09-28T08:10:02.139Z,71.96
2022-09-28T08:13:09.302Z,72.49
2022-09-28T08:16:15.767Z,71.78
2022-09-28T08:19:23.509Z,72.98
2022-09-28T08:22:26.404Z,73.30
2022-09-28T08:25:32.410Z,74.89
2022-09-28T08:28:43.237Z,75.69
2022-09-28T08:31:48.564Z,76.23
2022-09-28T08:34:52.247Z,76.52
2022-09-28T08:37:55.819Z,73.32
2022-09-28T08:41:11.636Z,75.36
2022-09-28T08:44:32.391Z,74.30
2022-09-28T08:48:02.573Z,74.02
2022-09-28T08:51:25.264Z,72.67
2022-09-28T08:54:46.573Z,71.85
2022-09-28T08:57:53.011Z,73.24
2022-09-28T09:00:59.848Z,73.97
2022-09-28T09:04:10.235Z,73.66
2022-09-28T09:07:34.318Z,73.85
2022-09-28T09:10:53.509Z,73.15
2022-09-28T09:14:04.704Z,71.82
2022-09-28T09:17:25.457Z,72.33
2022-09-28T09:20:47.173Z,70.67
2022-09-28T09:24:03.599Z,69.75
2022-09-28T09:27:31.303Z,69.51
2022-09-28T09:30:54.850Z,68.90
2022-09-28T09:34:35.908Z,68.78
2022-09-28T09:37:57.796Z,70.13
2022-09-28T09:41:23.416Z,68.56
2022-09-28T09:44:57.050Z,69.55
2022-09-28T09:48:22.182Z,69.92
2022-09-28T09:51:52.659Z,70.99
2022-09-28T09:55:30.303Z,69.80
2022-09-28T09:58:46.224Z,70.14
2022-09-28T10:01:51.369Z,70.51
2022-09-28T10:05:18.363Z,70.65
2022-09-28T10:08:20.910Z,70.47
2022-09-28T10:11:29.535Z,69.48
2022-09-28T10:14:36.661Z,68.44
2022-09-28T10:17:43.831Z,68.93
2022-09-28T10:20:49.737Z,69.00
2022-09-28T10:24:05.240Z,70.20
2022-09-28T10:27:09.075Z,70.40
2022-09-28T10:30:18.968Z,70.29
2022-09-28T10:33:31.828Z,68.65
